Date,TemperatureHighF,TemperatureAvgF,TemperatureLowF,DewpointHighF,DewpointAvgF,DewpointLowF,HumidityHigh,HumidityAvg,HumidityLow,PressureMaxIn,PressureMinIn,WindSpeedMaxMPH,WindSpeedAvgMPH,GustSpeedMaxMPH,PrecipitationSumIn
2013-1-1,48,40,35,45,36,29,90,83,75,30.30,30.03,12,7,20,0.01
2013-1-2,41,35,30,30,28,26,86,77,63,30.36,30.27,9,4,15,0.00
2013-1-3,48,38,28,32,28,24,88,70,47,30.48,30.34,10,2,16,0.00
2013-1-4,51,44,40,36,33,31,80,66,49,30.53,30.37,6,2,10,0.00
2013-1-5,55,44,37,41,38,34,91,78,57,30.37,30.20,7,3,14,0.00
2013-1-6,56,42,34,34,30,27,92,64,33,30.41,30.29,12,3,16,0.00
2013-1-7,55,42,27,36,30,23,87,66,46,30.35,30.10,6,1,10,0.00
2013-1-8,48,47,46,46,42,34,96,84,62,30.11,29.96,9,3,14,1.28
2013-1-9,57,53,47,56,52,46,98,96,95,30.11,29.92,12,6,23,2.27
2013-1-10,57,54,49,56,50,45,97,87,73,29.97,29.89,13,6,20,0.06
2013-1-11,71,59,47,61,51,43,91,76,50,29.93,29.75,15,8,30,0.01
2013-1-12,65,55,36,64,52,30,97,89,71,29.95,29.66,17,4,29,0.04
2013-1-13,42,35,31,30,24,20,79,64,50,30.29,29.93,17,7,26,0.02
2013-1-14,44,35,29,28,23,19,69,61,46,30.36,30.22,10,5,20,0.00
2013-1-15,37,34,29,30,26,22,90,75,62,30.25,30.17,10,6,16,0.07
2013-1-16,48,37,26,27,22,20,78,57,33,30.32,30.18,9,2,16,0.01
2013-1-17,59,46,34,37,31,23,74,57,38,30.50,30.26,11,3,20,0.00
2013-1-18,61,46,31,38,34,27,89,65,38,30.51,30.26,12,4,20,0.00
2013-1-19,65,52,40,47,42,35,87,69,50,30.26,30.12,13,5,26,0.00
2013-1-20,70,53,37,47,41,35,95,69,35,30.20,30.05,7,1,13,0.00
2013-1-21,55,46,40,40,34,27,84,63,46,30.30,30.10,13,4,20,0.00
2013-1-22,67,51,37,49,39,28,80,65,51,30.31,30.16,8,3,14,0.00
2013-1-23,74,62,51,57,53,47,89,73,55,30.26,30.09,17,7,26,0.00
2013-1-24,81,64,53,61,54,45,93,72,48,30.15,29.98,10,3,20,0.00
2013-1-25,55,48,45,45,42,39,95,81,69,30.19,30.01,9,2,13,0.00
2013-1-26,55,49,44,50,45,39,95,85,72,30.22,30.09,0,0,0,0.00
2013-1-27,75,63,51,63,58,50,97,84,59,30.09,29.89,16,4,31,0.00
2013-1-28,77,71,65,67,64,63,92,80,64,29.96,29.80,17,9,37,0.00
2013-1-29,78,67,55,66,59,32,92,76,41,29.79,29.39,18,8,37,0.29
2013-1-30,55,47,39,36,28,21,71,49,30,30.14,29.66,20,7,31,0.01
2013-1-31,68,57,37,33,28,24,59,34,21,30.29,30.08,15,5,25,0.00
2013-2-1,60,46,31,40,29,19,63,53,39,30.39,30.15,9,4,14,0.00
2013-2-2,66,55,44,46,39,35,85,58,32,30.31,30.13,10,3,18,0.00
2013-2-3,69,54,36,40,33,30,83,50,24,30.32,29.97,9,3,20,0.00
2013-2-4,73,61,52,58,50,32,89,69,38,29.97,29.75,11,5,21,0.07
2013-2-5,70,61,57,61,58,54,97,89,67,29.98,29.84,7,2,13,0.04
2013-2-6,74,64,57,63,58,55,97,83,54,29.98,29.81,13,6,23,0.00
2013-2-7,78,64,55,59,55,45,94,73,33,30.08,29.77,20,10,32,0.00
2013-2-8,65,53,43,47,34,24,76,53,21,30.24,30.08,12,4,21,0.00
2013-2-9,59,51,47,58,47,36,97,86,63,30.12,29.72,13,6,26,0.04
2013-2-10,67,59,47,65,40,26,97,55,22,29.99,29.62,16,5,29,0.66
2013-2-11,55,51,47,41,36,30,74,56,42,30.13,29.97,12,4,20,0.01
2013-2-12,50,47,42,47,44,37,96,89,75,30.04,29.84,15,5,29,0.42
2013-2-13,59,46,38,38,36,33,87,69,39,30.16,30.02,14,6,24,0.01
2013-2-14,69,54,41,41,38,35,83,59,29,30.09,29.98,9,3,15,0.00
2013-2-15,53,47,37,39,30,20,69,52,33,30.38,30.06,13,7,21,0.00
2013-2-16,58,43,29,31,27,23,79,54,34,30.42,30.17,9,2,18,0.00
2013-2-17,71,55,39,46,35,30,76,51,24,30.17,29.89,17,8,31,0.00
2013-2-18,77,62,52,57,46,32,84,58,29,30.11,29.73,21,11,35,0.00
2013-2-19,63,52,40,38,29,23,68,43,24,30.31,30.10,9,3,14,0.02
2013-2-20,51,45,42,41,38,35,85,75,54,30.16,29.77,12,6,18,0.15
2013-2-21,68,53,42,49,40,29,94,66,23,29.92,29.57,20,7,28,0.19
2013-2-22,48,39,31,39,27,21,80,63,45,30.15,29.91,12,6,20,0.03
2013-2-23,56,43,32,33,29,25,82,60,39,30.10,29.92,10,2,13,0.00
2013-2-24,71,53,35,46,39,29,82,60,38,29.93,29.59,14,4,25,0.00
2013-2-25,59,51,40,52,41,31,88,70,44,29.69,29.46,23,10,38,0.07
2013-2-26,58,46,39,34,33,31,75,61,39,29.90,29.69,20,9,35,0.01
2013-2-27,55,46,37,33,29,21,80,55,28,30.24,29.87,16,8,26,0.00
2013-2-28,58,46,37,31,28,25,72,51,29,30.31,30.18,19,8,28,0.00
2013-3-1,56,44,34,34,29,25,71,55,38,30.31,30.17,10,4,18,0.00
2013-3-2,55,42,32,30,27,24,78,56,34,30.44,30.24,13,6,20,0.00
2013-3-3,71,55,39,43,32,24,58,43,29,30.24,29.77,17,9,32,0.00
2013-3-4,86,69,56,51,43,37,63,44,18,29.77,29.55,20,10,29,0.00
2013-3-5,64,50,44,45,27,19,67,42,24,30.36,29.74,24,13,36,0.00
2013-3-6,61,48,33,26,22,15,70,39,17,30.46,30.20,7,2,13,0.00
2013-3-7,71,56,41,39,30,23,53,38,19,30.22,30.07,14,5,26,0.00
2013-3-8,62,58,55,57,52,40,89,80,53,30.15,29.96,15,8,25,0.00
2013-3-9,69,64,60,65,60,55,95,88,84,29.96,29.60,18,10,35,0.70
2013-3-10,61,52,40,60,40,31,95,64,49,30.09,29.70,21,9,33,0.71
2013-3-11,61,46,34,33,27,18,85,52,24,30.14,30.00,12,4,22,0.00
2013-3-12,69,54,41,34,30,25,58,40,25,30.30,30.03,9,3,16,0.00
2013-3-13,70,55,40,41,37,33,82,53,33,30.44,30.29,12,2,20,0.00
2013-3-14,77,62,47,49,43,37,72,52,35,30.33,30.14,14,6,26,0.00
2013-3-15,81,68,55,55,49,45,85,55,30,30.14,29.85,16,8,28,0.00
2013-3-16,81,69,57,61,55,48,84,61,46,29.85,29.64,19,11,32,0.00
2013-3-17,72,66,59,61,55,49,87,69,54,29.77,29.63,16,5,31,0.00
2013-3-18,69,63,58,63,50,41,92,65,47,29.97,29.61,14,6,26,0.00
2013-3-19,69,59,49,47,41,35,72,53,37,30.09,29.93,10,4,20,0.00
2013-3-20,67,58,47,39,34,27,69,43,24,30.29,30.02,11,3,20,0.00
2013-3-21,69,61,52,59,45,31,80,56,39,30.02,29.52,22,10,35,0.00
2013-3-22,65,54,46,61,50,43,92,86,74,29.83,29.52,13,7,23,0.00
2013-3-23,54,50,46,50,47,44,94,89,84,29.88,29.66,17,3,24,0.17
2013-3-24,52,45,37,48,30,20,93,59,36,30.19,29.82,21,13,32,0.01
2013-3-25,53,43,32,25,21,18,68,44,25,30.41,30.18,16,6,24,0.00
2013-3-26,60,44,29,29,24,19,78,48,26,30.51,30.29,6,1,10,0.00
2013-3-27,70,55,40,45,35,26,61,48,35,30.31,30.06,18,8,33,0.00
2013-3-28,71,61,50,59,52,44,87,74,63,30.19,30.05,14,7,26,0.00
2013-3-29,75,66,59,60,57,55,88,74,56,30.15,29.97,14,8,26,0.00
2013-3-30,76,67,54,64,59,-100,95,80,65,30.06,29.84,12,6,23,0.34
2013-3-31,75,68,61,63,58,53,92,72,50,29.95,29.76,12,5,25,0.01
2013-4-1,81,67,51,55,52,48,94,63,34,30.05,29.89,8,2,14,0.00
2013-4-2,69,65,55,63,59,46,94,82,60,29.98,29.83,23,7,38,0.14
2013-4-3,54,48,44,49,46,42,95,91,73,30.15,29.88,11,5,20,1.43
2013-4-4,49,45,41,42,40,38,94,85,74,30.22,30.11,13,7,20,0.26
2013-4-5,67,53,38,50,44,36,94,73,52,30.25,30.02,11,3,20,0.00
2013-4-6,76,64,55,60,54,47,83,70,56,30.02,29.80,16,10,30,0.00
2013-4-7,73,66,61,64,60,56,88,81,72,29.87,29.70,16,10,29,0.00
2013-4-8,75,70,65,66,63,58,84,78,70,29.72,29.61,17,11,35,0.00
2013-4-9,80,73,68,68,66,63,88,77,65,29.66,29.57,21,11,40,0.00
2013-4-10,74,47,38,68,42,36,92,85,65,29.98,29.65,17,11,26,0.34
2013-4-11,62,49,39,42,35,29,80,60,38,29.98,29.81,10,4,20,0.01
2013-4-12,77,61,43,51,44,39,88,58,34,29.98,29.84,10,3,16,0.00
2013-4-13,77,66,54,53,49,45,79,56,40,29.96,29.75,16,6,24,0.00
2013-4-14,83,69,56,68,59,50,86,71,56,29.75,29.49,15,9,30,0.00
2013-4-15,86,76,68,69,67,65,92,75,55,29.70,29.56,17,11,32,0.00
2013-4-16,87,77,71,70,67,64,88,72,53,29.84,29.69,16,10,29,0.00
2013-4-17,85,77,72,71,69,67,94,77,59,29.83,29.56,19,13,40,0.00
2013-4-18,76,55,45,72,46,35,93,74,52,30.14,29.50,21,13,40,1.25
2013-4-19,63,50,39,38,32,27,85,53,27,30.29,30.14,6,1,8,0.03
2013-4-20,70,58,44,39,36,33,68,46,27,30.19,29.99,7,2,14,0.00
2013-4-21,71,60,48,53,48,39,81,64,49,30.17,30.03,0,0,0,0.00
2013-4-22,79,66,53,62,55,47,87,68,54,30.08,29.80,0,0,0,0.00
2013-4-23,68,55,41,62,49,37,93,83,72,30.18,29.75,15,1,22,0.00
2013-4-24,60,48,37,40,36,31,89,64,41,30.32,30.18,15,4,23,0.10
2013-4-25,75,63,52,48,41,34,57,46,31,30.32,30.12,0,0,0,0.00
2013-4-26,77,67,60,67,57,45,85,69,53,30.13,29.93,0,0,0,0.00
2013-4-27,76,68,60,67,60,55,94,77,54,30.09,29.94,0,0,0,0.00
2013-4-28,82,67,52,67,59,50,95,78,58,30.01,29.81,9,2,15,0.00
2013-4-29,84,74,60,67,62,58,94,69,45,29.86,29.73,13,6,22,0.00
2013-4-30,83,71,60,66,62,57,93,74,55,29.79,29.69,12,6,21,0.00
2013-5-1,83,72,65,68,65,62,93,78,56,29.91,29.73,10,5,15,0.00
2013-5-2,72,52,43,63,45,35,85,78,72,30.33,29.87,20,12,31,0.00
2013-5-3,65,52,40,36,32,28,77,51,27,30.32,30.02,17,3,26,0.00
2013-5-4,75,58,39,39,35,29,85,47,23,30.02,29.88,7,1,15,0.00
2013-5-5,69,58,46,48,43,39,78,60,45,30.15,30.00,13,5,23,0.00
2013-5-6,77,64,49,56,51,45,87,65,44,30.11,29.97,7,1,13,0.00
2013-5-7,85,72,56,56,55,52,87,57,36,30.04,29.88,10,3,18,0.00
2013-5-8,83,74,64,64,58,54,74,57,42,29.94,29.81,16,8,29,0.00
2013-5-9,76,69,65,67,63,57,94,84,55,29.95,29.79,13,5,23,0.35
2013-5-10,81,71,65,66,61,-100,96,77,52,30.01,29.83,11,3,14,0.01
2013-5-11,80,70,60,59,52,-100,85,58,35,30.13,30.00,14,5,22,0.00
2013-5-12,79,68,56,55,44,35,71,45,22,30.24,30.10,10,2,16,0.00
2013-5-13,87,72,59,55,49,42,61,46,30,30.20,30.07,11,6,23,0.00
2013-5-14,85,74,60,62,58,52,83,58,34,30.11,29.93,14,7,33,0.00
2013-5-15,77,72,67,70,67,62,92,84,68,29.99,29.70,14,9,29,1.41
2013-5-16,82,66,63,73,46,-100,95,86,72,29.78,29.69,13,6,25,1.40
2013-5-17,89,78,73,75,68,-100,95,80,62,29.80,29.72,14,8,26,0.00
2013-5-18,92,82,72,75,72,68,89,73,54,29.83,29.69,16,10,31,0.00
2013-5-19,88,80,70,73,69,65,87,71,60,29.77,29.61,18,12,35,0.00
2013-5-20,91,81,73,73,70,68,88,71,55,29.76,29.57,23,8,35,0.00
2013-5-21,81,72,60,72,66,57,93,82,69,29.83,29.60,23,10,37,0.46
2013-5-22,88,71,54,64,59,53,96,70,35,29.92,29.80,7,2,12,0.01
2013-5-23,85,77,71,73,70,63,95,79,67,30.01,29.83,12,5,22,0.00
2013-5-24,86,77,67,73,70,63,92,80,66,30.13,29.90,18,4,26,0.10
2013-5-25,83,72,67,72,68,64,94,86,66,30.11,29.98,13,5,26,0.56
2013-5-26,87,78,72,74,71,69,94,80,63,30.04,29.86,15,8,26,0.01
2013-5-27,86,78,71,71,69,67,89,76,62,29.93,29.74,14,9,26,0.00
2013-5-28,85,79,72,70,69,67,87,73,61,29.83,29.70,21,11,32,0.00
2013-5-29,84,76,70,74,70,67,93,82,70,29.75,29.65,25,10,45,0.25
2013-5-30,88,80,74,74,72,70,88,77,61,29.74,29.63,0,0,0,0.16
2013-5-31,89,82,76,76,73,71,90,77,60,29.78,29.62,0,0,0,0.00
2013-6-1,88,80,75,75,72,69,87,78,65,29.89,29.65,4,0,8,0.03
2013-6-2,84,76,66,69,59,51,82,57,32,30.04,29.89,1,0,3,0.02
2013-6-3,91,76,63,64,60,56,85,59,37,29.96,29.79,2,0,3,0.00
2013-6-4,91,81,71,72,68,63,84,65,46,29.91,29.71,0,0,0,0.00
2013-6-5,91,82,73,72,69,67,85,67,51,29.88,29.70,0,0,0,0.00
2013-6-6,79,74,68,70,68,65,94,81,67,29.91,29.76,0,0,0,0.61
2013-6-7,86,74,62,66,60,55,95,67,36,29.98,29.84,0,0,0,0.01
2013-6-8,88,76,61,64,61,58,89,62,43,29.90,29.74,1,0,2,0.00
2013-6-9,91,78,67,71,68,63,95,73,51,29.89,29.80,0,0,3,1.31
2013-6-10,98,84,71,73,68,61,88,62,31,29.91,29.84,0,0,0,0.02
2013-6-11,92,83,73,75,71,67,91,69,51,29.97,29.86,0,0,0,0.00
2013-6-12,93,84,74,74,72,69,91,69,49,30.00,29.86,0,0,0,0.00
2013-6-13,97,85,74,74,71,68,85,64,42,30.00,29.83,0,0,0,0.00
2013-6-14,96,84,73,76,71,68,89,67,45,29.94,29.82,9,1,14,0.15
2013-6-15,89,82,75,76,73,69,89,73,53,29.95,29.82,10,3,14,0.15
2013-6-16,95,86,75,75,72,69,88,66,46,29.96,29.80,11,4,20,0.00
2013-6-17,93,84,69,75,72,67,95,69,54,29.99,29.79,12,4,23,0.03
2013-6-18,87,78,71,75,70,67,93,78,59,29.96,29.81,14,3,24,0.21
2013-6-19,95,81,71,77,72,67,95,76,50,29.93,29.80,10,2,18,0.01
2013-6-20,93,81,75,75,71,69,86,73,48,29.99,29.86,14,7,26,0.00
2013-6-22,95,90,81,73,71,68,75,54,45,29.97,29.81,14,9,26,0.00
2013-6-23,94,86,76,73,70,68,86,63,43,29.93,29.81,15,9,26,0.00
2013-6-24,95,86,75,73,70,68,87,61,44,29.96,29.81,14,9,29,0.00
2013-6-25,97,87,77,73,70,66,83,60,40,29.92,29.76,16,10,30,0.00
2013-6-26,97,87,76,76,71,64,84,61,47,29.89,29.78,14,8,28,0.00
2013-6-27,101,88,77,75,71,67,81,60,39,29.96,29.80,9,5,18,0.00
2013-6-28,104,87,77,73,68,65,70,54,32,29.88,29.75,10,3,16,0.00
2013-6-29,97,85,74,72,67,61,81,57,32,29.85,29.74,10,3,16,0.00
2013-6-30,91,83,74,67,62,56,76,51,34,29.89,29.76,12,4,22,0.00
2013-7-1,87,78,69,62,59,56,71,53,36,29.99,29.88,12,4,21,0.00
2013-7-2,88,78,66,61,56,48,70,49,26,30.05,29.96,12,3,18,0.00
2013-7-3,92,79,62,62,55,47,79,48,22,30.02,29.89,6,1,12,0.00
2013-7-4,96,82,70,65,61,55,74,50,26,29.95,29.82,8,4,20,0.00
2013-7-5,98,84,71,65,62,58,72,50,31,29.94,29.79,9,4,15,0.00
2013-7-6,97,85,74,69,64,57,70,52,27,29.89,29.78,13,5,21,0.00
2013-7-7,98,87,75,72,68,63,76,54,35,29.94,29.81,10,4,16,0.00
2013-7-8,96,83,77,75,70,-100,84,67,44,30.02,29.91,13,6,22,0.00
2013-7-9,98,86,75,73,68,63,84,58,32,30.06,29.90,13,6,24,0.00
2013-7-10,102,88,81,73,67,-100,76,54,31,29.99,29.83,10,5,18,0.00
2013-7-11,103,88,82,73,71,66,72,58,34,29.91,29.81,13,4,25,0.00
2013-7-12,102,88,75,74,70,67,84,60,34,29.91,29.80,10,2,16,0.00
2013-7-13,101,90,80,73,70,63,74,54,35,29.93,29.79,7,4,15,0.00
2013-7-14,85,73,67,70,66,60,95,80,47,29.97,29.82,8,2,13,0.57
2013-7-15,73,70,66,72,68,65,96,95,91,30.04,29.93,5,1,9,0.93
2013-7-16,88,77,71,75,71,69,96,83,58,30.14,30.03,12,2,18,0.08
2013-7-17,90,78,72,77,72,69,94,84,58,30.18,30.08,11,2,22,0.12
2013-7-18,95,80,71,75,72,70,97,79,47,30.14,29.96,15,1,26,0.05
2013-7-19,95,83,74,73,72,68,91,70,45,30.00,29.86,13,4,24,0.00
2013-7-20,94,80,74,77,70,-100,90,75,49,29.93,29.79,12,3,26,0.42
2013-7-21,95,84,73,76,73,71,93,71,47,29.88,29.78,14,5,23,0.06
2013-7-22,96,86,76,76,74,71,91,70,47,29.91,29.79,12,7,23,0.00
2013-7-23,96,87,79,79,74,68,86,65,45,29.91,29.76,13,7,23,0.00
2013-7-24,97,86,78,75,72,68,81,63,41,29.99,29.79,12,4,21,0.00
2013-7-25,96,85,76,76,73,67,83,68,50,29.99,29.90,14,3,28,0.00
2013-7-26,95,83,77,77,73,71,89,74,51,29.96,29.80,12,5,23,0.18
2013-7-27,91,81,74,74,68,64,83,66,41,29.97,29.85,11,5,20,0.01
2013-7-28,93,81,68,73,69,65,92,69,49,29.93,29.80,10,3,15,0.00
2013-7-29,95,86,77,76,73,66,87,67,44,29.93,29.84,12,7,23,0.00
2013-7-30,98,87,78,75,71,66,83,61,41,30.02,29.88,14,7,33,0.00
2013-7-31,103,88,78,80,71,66,85,59,39,30.00,29.83,14,4,24,0.05
2013-8-1,103,91,78,77,74,71,84,60,38,29.94,29.81,8,2,14,0.05
2013-8-2,101,90,80,72,71,67,74,55,35,29.88,29.79,13,6,21,0.00
2013-8-3,100,89,78,73,69,66,75,54,37,29.95,29.85,10,6,21,0.00
2013-8-4,100,89,79,74,71,66,81,57,36,30.00,29.85,12,5,21,0.00
2013-8-5,101,88,80,73,69,65,76,56,34,29.94,29.77,10,5,20,0.00
2013-8-6,102,89,79,72,69,65,78,54,32,29.84,29.72,13,7,23,0.00
2013-8-7,104,90,79,73,70,66,76,55,33,29.83,29.69,14,7,24,0.00
2013-8-8,102,89,80,74,70,64,80,55,34,29.83,29.70,11,5,20,0.00
2013-8-9,102,88,80,73,69,63,74,55,29,29.90,29.75,9,4,20,0.00
2013-8-10,98,86,76,76,72,69,90,65,42,30.00,29.89,10,4,16,0.00
2013-8-11,103,88,76,74,71,68,82,59,34,30.01,29.87,7,2,15,0.00
2013-8-21,95,84,74,71,68,62,82,59,42,30.03,29.92,7,3,15,0.00
2013-8-22,98,87,76,73,70,67,79,59,39,30.03,29.86,8,3,14,0.00
2013-8-23,100,89,79,74,70,67,76,56,36,29.97,29.83,6,3,14,0.00
2013-8-24,102,87,78,73,66,-100,75,54,33,29.99,29.88,6,2,12,0.00
2013-8-25,98,88,77,72,69,66,76,55,39,30.08,29.97,8,3,14,0.00
2013-8-26,98,86,76,72,69,65,79,59,36,30.11,29.98,10,5,20,0.00
2013-8-27,90,79,74,71,70,69,88,76,50,30.07,30.00,11,6,23,0.00
2013-10-18,69,60,52,57,52,49,91,77,55,30.09,29.87,16,4,26,0.01
2013-10-19,65,51,42,47,38,-100,87,68,40,30.21,30.07,13,6,26,0.01
2013-10-20,71,58,42,48,45,39,92,64,41,30.07,29.86,13,6,25,0.00
2013-10-21,71,60,54,62,53,47,90,79,69,30.09,29.88,11,5,16,0.00
2013-10-22,76,61,43,49,45,40,90,60,34,30.16,30.01,7,2,12,0.00
2013-10-23,83,65,48,55,49,44,89,61,32,30.11,30.00,6,2,12,0.00
2013-10-24,79,68,52,54,50,46,81,52,38,30.23,30.04,7,3,12,0.00